This is the latest recevied weather packets stored in our database for station/object YO4CIL-MG. If no packets are shown the sender has not sent any weather packets the latest 10 day(s).
| Time | Temp. | Humidity | Pressure | Rain* | Wind** | Luminosity | Snow |
|---|---|---|---|---|---|---|---|
| 1777231517 | 12.78° C | 61% | 1017.7 hPa | - | - | - | - |
| 1777230915 | 12.78° C | 60% | 1017.4 hPa | - | - | - | - |
| 1777230315 | 12.78° C | 60% | 1017.3 hPa | - | - | - | - |
| 1777229715 | 12.78° C | 60% | 1016.9 hPa | - | - | - | - |
| 1777229115 | 12.78° C | 59% | 1016.6 hPa | - | - | - | - |
| 1777228515 | 13.33° C | 59% | 1016.4 hPa | - | - | - | - |
| 1777227915 | 13.33° C | 60% | 1016.1 hPa | - | - | - | - |
| 1777227315 | 13.33° C | 59% | 1015.8 hPa | - | - | - | - |
| 1777226715 | 13.33° C | 58% | 1015.4 hPa | - | - | - | - |
| 1777226115 | 13.33° C | 57% | 1015 hPa | - | - | - | - |
| 1777225515 | 13.33° C | 59% | 1014.7 hPa | - | - | - | - |
| 1777224915 | 13.33° C | 60% | 1014.3 hPa | - | - | - | - |
| 1777224345 | 13.89° C | 60% | 1014 hPa | - | - | - | - |
| 1777223715 | 13.89° C | 60% | 1013.5 hPa | - | - | - | - |
| 1777223115 | 14.44° C | 60% | 1013.3 hPa | - | - | - | - |
| 1777222515 | 14.44° C | 59% | 1013.1 hPa | - | - | - | - |
| 1777221915 | 14.44° C | 58% | 1012.7 hPa | - | - | - | - |
| 1777221315 | 15° C | 58% | 1012.4 hPa | - | - | - | - |
| 1777220715 | 15.56° C | 57% | 1012 hPa | - | - | - | - |
| 1777220115 | 16.11° C | 55% | 1011.9 hPa | - | - | - | - |
| 1777219515 | 17.22° C | 54% | 1011.6 hPa | - | - | - | - |
| 1777218915 | 17.78° C | 53% | 1011.4 hPa | - | - | - | - |
| 1777218315 | 20.56° C | 47% | 1010.9 hPa | - | - | - | - |
| 1777217715 | 24.44° C | 36% | 1009.5 hPa | - | - | - | - |
| 1777217115 | 25° C | 35% | 1009.2 hPa | - | - | - | - |
* Rain since midnight (hover to see other rain measurements)
** Current wind speed in m/s (hover to see current wind gust speed)